createdAt,value
2023-06-05T00:00:45.215Z,101779.19
2023-06-05T00:03:29.037Z,101772.63
2023-06-05T00:06:15.597Z,101777.19
2023-06-05T00:08:59.409Z,101783.81
2023-06-05T00:11:43.112Z,101776.72
2023-06-05T00:14:26.684Z,101778.78
2023-06-05T00:17:10.429Z,101774.00
2023-06-05T00:19:54.280Z,101771.13
2023-06-05T00:22:38.968Z,101779.53
2023-06-05T00:25:23.239Z,101774.75
2023-06-05T00:28:07.053Z,101775.53
2023-06-05T00:30:50.848Z,101772.13
2023-06-05T00:33:34.459Z,101779.44
2023-06-05T00:36:20.009Z,101776.03
2023-06-05T00:39:04.141Z,101778.47
2023-06-05T00:41:48.093Z,101776.09
2023-06-05T00:44:31.677Z,101770.72
2023-06-05T00:47:16.198Z,101776.69
2023-06-05T00:50:00.636Z,101776.38
2023-06-05T00:52:45.675Z,101778.00
2023-06-05T00:55:29.282Z,101773.34
2023-06-05T00:58:16.544Z,101773.09
2023-06-05T01:01:05.181Z,101768.41
2023-06-05T01:03:49.047Z,101768.31
2023-06-05T01:06:39.499Z,101772.03
2023-06-05T01:09:23.178Z,101765.38
2023-06-05T01:12:14.334Z,101769.72
2023-06-05T01:15:02.421Z,101761.84
2023-06-05T01:17:49.174Z,101770.28
2023-06-05T01:20:40.870Z,101770.94
2023-06-05T01:23:26.579Z,101759.44
2023-06-05T01:26:10.366Z,101765.13
2023-06-05T01:28:54.205Z,101756.88
2023-06-05T01:31:43.208Z,101765.59
2023-06-05T01:34:29.851Z,101768.19
2023-06-05T01:37:16.024Z,101766.59
2023-06-05T01:40:00.936Z,101773.66
2023-06-05T01:42:46.930Z,101770.13
2023-06-05T01:45:31.882Z,101771.44
2023-06-05T01:48:16.647Z,101764.84
2023-06-05T01:51:02.476Z,101759.19
2023-06-05T01:53:50.168Z,101764.84
2023-06-05T01:56:36.716Z,101762.09
2023-06-05T01:59:21.085Z,101764.19
2023-06-05T02:02:05.190Z,101761.78
2023-06-05T02:04:49.736Z,101769.19
2023-06-05T02:07:34.262Z,101760.81
2023-06-05T02:10:20.555Z,101760.97
2023-06-05T02:13:05.078Z,101753.06
2023-06-05T02:15:49.057Z,101747.25
2023-06-05T02:18:38.435Z,101750.31
2023-06-05T02:21:22.175Z,101745.00
2023-06-05T02:24:06.639Z,101741.47
2023-06-05T02:26:50.281Z,101741.28
2023-06-05T02:29:34.571Z,101737.25
2023-06-05T02:32:19.614Z,101736.31
2023-06-05T02:35:05.845Z,101736.16
2023-06-05T02:37:50.032Z,101732.59
2023-06-05T02:40:33.635Z,101730.00
2023-06-05T02:43:18.692Z,101731.75
2023-06-05T02:46:02.904Z,101732.56
2023-06-05T02:48:46.740Z,101734.81
2023-06-05T02:51:30.460Z,101738.84
2023-06-05T02:54:14.338Z,101735.44
2023-06-05T02:57:01.551Z,101730.44
2023-06-05T02:59:48.501Z,101727.53
2023-06-05T03:02:37.485Z,101729.63
2023-06-05T03:05:26.376Z,101727.53
2023-06-05T03:08:13.568Z,101725.78
2023-06-05T03:10:57.377Z,101729.63
2023-06-05T03:13:41.778Z,101726.09
2023-06-05T03:16:35.622Z,101730.59
2023-06-05T03:19:19.643Z,101724.31
2023-06-05T03:22:05.303Z,101729.28
2023-06-05T03:24:51.219Z,101720.13
2023-06-05T03:27:34.892Z,101723.03
2023-06-05T03:30:20.316Z,101725.94
2023-06-05T03:33:08.680Z,101727.03
2023-06-05T03:35:53.860Z,101727.53
2023-06-05T03:38:37.658Z,101720.94
2023-06-05T03:41:21.360Z,101730.78
2023-06-05T03:44:05.276Z,101733.22
2023-06-05T03:46:50.970Z,101735.78
2023-06-05T03:49:34.954Z,101735.47
2023-06-05T03:52:18.734Z,101739.47
2023-06-05T03:55:05.852Z,101735.94
2023-06-05T03:57:49.521Z,101739.84
2023-06-05T04:00:33.664Z,101731.47
2023-06-05T04:03:17.759Z,101730.03
2023-06-05T04:06:01.678Z,101734.53
2023-06-05T04:08:45.309Z,101735.97
2023-06-05T04:11:29.375Z,101741.16
2023-06-05T04:14:15.709Z,101744.69
2023-06-05T04:17:01.135Z,101745.00
2023-06-05T04:19:44.815Z,101743.88
2023-06-05T04:22:28.504Z,101750.94
2023-06-05T04:25:16.153Z,101749.03
2023-06-05T04:28:01.261Z,101750.16
2023-06-05T04:30:47.343Z,101742.19
2023-06-05T04:33:33.347Z,101750.59
2023-06-05T04:36:19.226Z,101743.16
2023-06-05T04:39:05.152Z,101747.63
2023-06-05T04:42:02.917Z,101741.66
2023-06-05T04:45:02.661Z,101742.00
2023-06-05T04:47:46.863Z,101741.63
2023-06-05T04:50:31.330Z,101745.63
2023-06-05T04:53:22.850Z,101741.03
2023-06-05T04:56:07.408Z,101745.34
2023-06-05T04:58:53.344Z,101735.66
2023-06-05T05:01:38.070Z,101743.47
2023-06-05T05:04:22.105Z,101739.28
2023-06-05T05:07:08.230Z,101737.66
2023-06-05T05:09:51.953Z,101739.09
2023-06-05T05:12:35.942Z,101737.56
2023-06-05T05:15:19.570Z,101739.91
2023-06-05T05:18:03.706Z,101741.72
2023-06-05T05:20:48.182Z,101744.97
2023-06-05T05:23:32.836Z,101747.19
2023-06-05T05:26:16.482Z,101745.38
2023-06-05T05:29:00.747Z,101749.91
2023-06-05T05:31:45.766Z,101746.38
2023-06-05T05:34:30.361Z,101749.06
2023-06-05T05:37:15.023Z,101747.72
2023-06-05T05:39:58.613Z,101741.41
2023-06-05T05:42:43.006Z,101750.03
2023-06-05T05:45:26.709Z,101756.34
2023-06-05T05:48:10.549Z,101754.75
2023-06-05T05:50:54.194Z,101758.47
2023-06-05T05:53:37.824Z,101760.31
2023-06-05T05:56:21.456Z,101757.94
2023-06-05T05:59:05.557Z,101767.31
2023-06-05T06:01:52.654Z,101772.53
2023-06-05T06:04:37.198Z,101775.97
2023-06-05T06:07:20.869Z,101772.09
2023-06-05T06:10:05.025Z,101777.50
2023-06-05T06:12:48.592Z,101786.34
2023-06-05T06:15:32.988Z,101782.81
2023-06-05T06:18:16.894Z,101781.41
2023-06-05T06:21:00.485Z,101777.69
2023-06-05T06:23:46.155Z,101782.59
2023-06-05T06:26:30.275Z,101780.88
2023-06-05T06:29:22.271Z,101776.09
2023-06-05T06:32:06.375Z,101774.69
2023-06-05T06:34:50.287Z,101774.22
2023-06-05T06:37:33.849Z,101776.72
2023-06-05T06:40:17.424Z,101789.34
2023-06-05T06:43:01.262Z,101785.53
2023-06-05T06:45:54.147Z,101779.50
2023-06-05T06:48:38.519Z,101779.31
2023-06-05T06:51:23.357Z,101777.09
2023-06-05T06:54:07.300Z,101776.84
2023-06-05T06:56:51.290Z,101784.59
2023-06-05T06:59:34.984Z,101777.97
2023-06-05T07:02:21.406Z,101775.91
2023-06-05T07:05:05.529Z,101784.78
2023-06-05T07:07:49.198Z,101781.72
2023-06-05T07:10:32.887Z,101784.69
2023-06-05T07:13:16.629Z,101778.28
2023-06-05T07:16:00.242Z,101778.94
2023-06-05T07:18:43.865Z,101778.44
2023-06-05T07:21:28.352Z,101776.19
2023-06-05T07:24:12.229Z,101780.63
2023-06-05T07:26:58.099Z,101778.41
2023-06-05T07:29:41.683Z,101779.91
2023-06-05T07:32:25.308Z,101776.16
2023-06-05T07:35:10.329Z,101774.13
2023-06-05T07:37:53.896Z,101779.25
2023-06-05T07:40:37.469Z,101782.47
2023-06-05T07:43:21.147Z,101784.78
2023-06-05T07:46:06.289Z,101782.53
2023-06-05T07:48:50.004Z,101777.31
2023-06-05T07:51:36.972Z,101776.69
2023-06-05T07:54:22.177Z,101775.59
2023-06-05T07:57:05.834Z,101776.56
2023-06-05T07:59:50.349Z,101771.72
2023-06-05T08:02:33.965Z,101772.22
2023-06-05T08:05:18.533Z,101775.69
2023-06-05T08:08:03.659Z,101765.88
2023-06-05T08:10:48.897Z,101763.16
2023-06-05T08:13:32.499Z,101758.13
2023-06-05T08:16:16.776Z,101765.69
2023-06-05T08:19:00.519Z,101761.66
2023-06-05T08:21:44.248Z,101763.28
2023-06-05T08:24:29.646Z,101762.22
2023-06-05T08:27:13.267Z,101762.00
2023-06-05T08:29:56.788Z,101761.41
2023-06-05T08:32:41.274Z,101753.47
2023-06-05T08:35:24.987Z,101743.91
2023-06-05T08:38:09.119Z,101751.34
2023-06-05T08:41:03.199Z,101747.41
2023-06-05T08:43:47.242Z,101741.53
2023-06-05T08:46:34.099Z,101754.53
2023-06-05T08:49:26.651Z,101748.75
2023-06-05T08:52:14.972Z,101742.16
2023-06-05T08:54:59.863Z,101740.50
2023-06-05T08:57:44.225Z,101741.81
2023-06-05T09:00:30.637Z,101736.78
2023-06-05T09:03:14.573Z,101742.69
2023-06-05T09:05:58.267Z,101742.19
2023-06-05T09:08:42.096Z,101742.50
2023-06-05T09:11:33.410Z,101732.78
2023-06-05T09:14:27.526Z,101736.69
2023-06-05T09:17:15.832Z,101729.56
2023-06-05T09:19:59.459Z,101732.94
2023-06-05T09:22:43.036Z,101724.66
2023-06-05T09:25:26.692Z,101732.34
2023-06-05T09:28:10.260Z,101740.09
2023-06-05T09:31:04.355Z,101735.88
2023-06-05T09:33:57.103Z,101727.41
2023-06-05T09:36:47.213Z,101723.16
2023-06-05T09:39:33.036Z,101721.53
2023-06-05T09:42:16.589Z,101718.53
2023-06-05T09:45:01.863Z,101716.31
2023-06-05T09:47:53.720Z,101719.00
2023-06-05T09:50:38.324Z,101714.47
2023-06-05T09:53:23.279Z,101701.81
2023-06-05T09:56:08.744Z,101713.69
2023-06-05T09:58:53.738Z,101701.47
2023-06-05T10:01:41.803Z,101701.19
2023-06-05T10:04:29.471Z,101703.72
2023-06-05T10:07:14.723Z,101698.88
2023-06-05T10:09:59.157Z,101694.72
2023-06-05T10:12:44.327Z,101692.16
2023-06-05T10:15:28.913Z,101690.28
2023-06-05T10:18:12.862Z,101682.78
2023-06-05T10:20:58.427Z,101677.28
2023-06-05T10:24:05.246Z,101673.53
2023-06-05T10:27:13.900Z,101672.66
2023-06-05T10:30:37.966Z,101671.16
2023-06-05T10:34:19.455Z,101665.59
2023-06-05T10:37:09.154Z,101668.00
2023-06-05T10:39:55.575Z,101660.25
2023-06-05T10:42:39.410Z,101657.44
2023-06-05T10:45:33.561Z,101663.97
2023-06-05T10:48:17.774Z,101662.16
2023-06-05T10:51:46.959Z,101660.44
2023-06-05T10:54:30.906Z,101652.28
2023-06-05T10:57:14.628Z,101650.28
2023-06-05T11:00:16.725Z,101648.88
2023-06-05T11:03:02.262Z,101649.88
2023-06-05T11:06:13.427Z,101654.31
2023-06-05T11:09:16.038Z,101654.63
2023-06-05T11:12:02.580Z,101657.19
2023-06-05T11:14:49.370Z,101654.78
2023-06-05T11:17:35.519Z,101649.28
2023-06-05T11:20:25.062Z,101635.19
2023-06-05T11:23:08.727Z,101640.16
2023-06-05T11:25:52.507Z,101636.03
2023-06-05T11:28:44.824Z,101638.94
2023-06-05T11:31:32.566Z,101632.47
2023-06-05T11:34:16.452Z,101631.44
2023-06-05T11:37:19.488Z,101630.34
2023-06-05T11:40:10.333Z,101625.69
2023-06-05T11:43:02.662Z,101615.59
2023-06-05T11:45:58.837Z,101612.66
2023-06-05T11:48:47.653Z,101603.28
2023-06-05T11:51:38.251Z,101605.97
2023-06-05T11:54:32.087Z,101613.09
2023-06-05T11:57:18.728Z,101615.56
2023-06-05T12:00:02.491Z,101613.19
2023-06-05T12:02:53.403Z,101609.16
2023-06-05T12:05:37.334Z,101603.75
2023-06-05T12:08:30.430Z,101609.19
2023-06-05T12:11:28.646Z,101602.59
2023-06-05T12:14:14.563Z,101599.47
2023-06-05T12:17:01.492Z,101589.47
2023-06-05T12:19:54.672Z,101595.09
2023-06-05T12:22:39.729Z,101585.69
2023-06-05T12:25:24.632Z,101589.75
2023-06-05T12:28:21.446Z,101588.34
2023-06-05T12:31:05.304Z,101585.44
2023-06-05T12:33:50.289Z,101590.63
2023-06-05T12:36:52.843Z,101583.66
2023-06-05T12:39:36.710Z,101576.03
2023-06-05T12:42:20.278Z,101581.75
2023-06-05T12:45:05.383Z,101567.97
2023-06-05T12:47:49.101Z,101572.19
2023-06-05T12:50:33.284Z,101566.81
2023-06-05T12:53:16.911Z,101566.41
2023-06-05T12:56:00.588Z,101567.69
2023-06-05T12:58:44.157Z,101562.31
2023-06-05T13:01:29.925Z,101561.97
2023-06-05T13:04:13.657Z,101562.84
2023-06-05T13:07:01.139Z,101558.41
2023-06-05T13:09:44.798Z,101554.28
2023-06-05T13:12:28.449Z,101556.13
2023-06-05T13:15:12.540Z,101533.56
2023-06-05T13:17:56.241Z,101539.91
2023-06-05T13:20:39.867Z,101537.34
2023-06-05T13:23:23.578Z,101530.59
2023-06-05T13:26:07.503Z,101523.28
2023-06-05T13:28:51.314Z,101512.94
2023-06-05T13:31:35.227Z,101517.41
2023-06-05T13:34:18.909Z,101514.97
2023-06-05T13:37:10.156Z,101518.81
2023-06-05T13:39:57.652Z,101509.38
2023-06-05T13:42:41.339Z,101508.75
2023-06-05T13:45:24.984Z,101515.34
2023-06-05T13:48:11.194Z,101504.25
2023-06-05T13:50:54.836Z,101502.00
2023-06-05T13:53:38.420Z,101507.63
2023-06-05T13:56:22.551Z,101498.91
2023-06-05T13:59:06.157Z,101504.34
2023-06-05T14:01:49.840Z,101502.38
2023-06-05T14:04:33.597Z,101499.66
2023-06-05T14:07:17.439Z,101492.09
2023-06-05T14:10:01.609Z,101495.72
2023-06-05T14:12:45.511Z,101490.41
2023-06-05T14:15:29.078Z,101492.94
2023-06-05T14:18:13.773Z,101495.59
2023-06-05T14:20:58.047Z,101487.53
2023-06-05T14:23:42.632Z,101486.44
2023-06-05T14:26:26.867Z,101478.31
2023-06-05T14:29:11.141Z,101484.59
2023-06-05T14:31:54.887Z,101486.75
2023-06-05T14:34:38.527Z,101488.81
2023-06-05T14:37:22.105Z,101483.66
2023-06-05T14:40:06.677Z,101479.53
2023-06-05T14:42:51.247Z,101482.63
2023-06-05T14:45:34.854Z,101476.50
2023-06-05T14:48:18.454Z,101474.91
2023-06-05T14:51:02.116Z,101480.97
2023-06-05T14:53:45.666Z,101468.91
2023-06-05T14:56:29.234Z,101465.03
2023-06-05T14:59:26.841Z,101469.16
2023-06-05T15:02:11.124Z,101470.09
2023-06-05T15:04:54.892Z,101473.03
2023-06-05T15:07:40.414Z,101470.66
2023-06-05T15:10:23.970Z,101460.59
2023-06-05T15:13:07.556Z,101458.94
2023-06-05T15:15:51.627Z,101455.50
2023-06-05T15:18:35.664Z,101454.66
2023-06-05T15:21:19.368Z,101451.00
2023-06-05T15:24:03.168Z,101453.63
2023-06-05T15:26:46.840Z,101449.00
2023-06-05T15:29:31.039Z,101449.63
2023-06-05T15:32:20.688Z,101445.63
2023-06-05T15:35:05.059Z,101453.78
2023-06-05T15:37:48.678Z,101444.94
2023-06-05T15:40:32.221Z,101446.25
2023-06-05T15:43:16.310Z,101443.28
2023-06-05T15:45:59.926Z,101443.38
2023-06-05T15:48:43.624Z,101432.75
2023-06-05T15:51:29.042Z,101440.75
2023-06-05T15:54:31.273Z,101425.00
2023-06-05T15:57:16.349Z,101429.38
2023-06-05T15:59:59.941Z,101439.22
2023-06-05T16:02:43.574Z,101430.63
2023-06-05T16:05:27.279Z,101426.84
2023-06-05T16:08:11.375Z,101443.56
2023-06-05T16:10:54.941Z,101432.94
2023-06-05T16:13:39.224Z,101444.66
2023-06-05T16:16:22.890Z,101444.56
2023-06-05T16:19:06.710Z,101430.38
2023-06-05T16:21:50.325Z,101439.16
2023-06-05T16:24:34.633Z,101427.22
2023-06-05T16:31:43.250Z,101426.09
2023-06-05T16:34:53.077Z,101430.28
2023-06-05T16:38:05.293Z,101422.66
2023-06-05T16:40:54.867Z,101425.50
2023-06-05T16:50:52.494Z,101417.16
2023-06-05T16:53:37.159Z,101415.38
2023-06-05T16:56:20.788Z,101417.28
2023-06-05T16:59:14.068Z,101409.16
2023-06-05T17:01:57.784Z,101408.34
2023-06-05T17:04:41.923Z,101407.75
2023-06-05T17:07:26.249Z,101405.91
2023-06-05T17:10:10.481Z,101415.47
2023-06-05T17:12:54.173Z,101415.63
2023-06-05T17:15:37.823Z,101408.69
2023-06-05T17:18:21.507Z,101414.50
2023-06-05T17:21:05.332Z,101415.59
2023-06-05T17:23:49.177Z,101410.69
2023-06-05T17:26:32.940Z,101415.16
2023-06-05T17:29:16.623Z,101408.06
2023-06-05T17:32:00.377Z,101406.00
2023-06-05T17:34:44.377Z,101409.75
2023-06-05T17:37:28.019Z,101413.81
2023-06-05T17:40:12.257Z,101410.13
2023-06-05T17:42:55.905Z,101413.81
2023-06-05T17:45:39.735Z,101408.50
2023-06-05T17:48:23.539Z,101406.47
2023-06-05T17:51:07.590Z,101409.19
2023-06-05T17:53:51.569Z,101406.66
2023-06-05T17:56:37.330Z,101405.16
2023-06-05T17:59:21.077Z,101405.16
2023-06-05T18:02:05.344Z,101409.81
2023-06-05T18:04:49.190Z,101401.72
2023-06-05T18:07:32.852Z,101412.63
2023-06-05T18:10:16.756Z,101400.78
2023-06-05T18:13:01.041Z,101405.38
2023-06-05T18:15:44.701Z,101403.28
2023-06-05T18:18:28.315Z,101403.66
2023-06-05T18:21:15.456Z,101404.28
2023-06-05T18:23:59.122Z,101402.50
2023-06-05T18:26:43.133Z,101400.81
2023-06-05T18:29:26.860Z,101397.81
2023-06-05T18:32:10.931Z,101402.78
2023-06-05T18:34:54.746Z,101400.00
2023-06-05T18:37:40.658Z,101408.53
2023-06-05T18:40:26.773Z,101411.75
2023-06-05T18:43:11.196Z,101411.06
2023-06-05T18:45:55.049Z,101406.88
2023-06-05T18:48:38.749Z,101407.50
2023-06-05T18:51:25.861Z,101412.63
2023-06-05T18:54:09.988Z,101413.78
2023-06-05T18:56:53.707Z,101417.91
2023-06-05T18:59:37.293Z,101421.13
2023-06-05T19:02:22.425Z,101414.38
2023-06-05T19:05:07.560Z,101415.34
2023-06-05T19:07:51.806Z,101410.66
2023-06-05T19:10:35.784Z,101416.59
2023-06-05T19:13:19.480Z,101414.56
2023-06-05T19:16:03.158Z,101418.72
2023-06-05T19:18:46.772Z,101422.19
2023-06-05T19:21:30.363Z,101428.34
2023-06-05T19:24:13.931Z,101431.97
2023-06-05T19:26:57.653Z,101431.91
2023-06-05T19:29:41.288Z,101433.25
2023-06-05T19:32:25.283Z,101433.88
2023-06-05T19:35:09.725Z,101439.00
2023-06-05T19:37:53.349Z,101436.25
2023-06-05T19:40:39.371Z,101436.63
2023-06-05T19:43:55.312Z,101445.09
2023-06-05T19:46:40.043Z,101442.53
2023-06-05T19:49:24.704Z,101446.06
2023-06-05T19:52:08.300Z,101450.06
2023-06-05T19:54:53.444Z,101445.41
2023-06-05T19:57:37.148Z,101440.63
2023-06-05T20:00:20.802Z,101449.28
2023-06-05T20:03:04.994Z,101450.19
2023-06-05T20:05:48.612Z,101459.63
2023-06-05T20:09:11.687Z,101458.72
2023-06-05T20:12:17.577Z,101460.84
2023-06-05T20:15:03.742Z,101468.44
2023-06-05T20:17:48.447Z,101462.88
2023-06-05T20:20:32.174Z,101470.47
2023-06-05T20:23:15.770Z,101470.47
2023-06-05T20:26:07.086Z,101463.25
2023-06-05T20:28:50.796Z,101465.66
2023-06-05T20:31:34.462Z,101469.63
2023-06-05T20:34:32.275Z,101466.84
2023-06-05T20:37:42.830Z,101464.13
2023-06-05T20:43:43.232Z,101480.03
2023-06-05T20:46:27.921Z,101470.06
2023-06-05T20:49:11.533Z,101472.09
2023-06-05T20:52:07.262Z,101470.50
2023-06-05T20:54:51.172Z,101466.94
2023-06-05T20:57:34.883Z,101469.69
2023-06-05T21:00:20.060Z,101476.06
2023-06-05T21:03:05.266Z,101472.03
2023-06-05T21:05:49.659Z,101464.47
2023-06-05T21:08:33.239Z,101473.16
2023-06-05T21:11:16.800Z,101472.34
2023-06-05T21:14:00.404Z,101473.97
2023-06-05T21:16:43.977Z,101473.56
2023-06-05T21:19:27.567Z,101473.16
2023-06-05T21:22:25.893Z,101482.63
2023-06-05T21:25:09.844Z,101482.69
2023-06-05T21:27:53.413Z,101492.66
2023-06-05T21:30:38.655Z,101487.69
2023-06-05T21:33:22.527Z,101488.84
2023-06-05T21:36:06.339Z,101488.34
2023-06-05T21:38:49.982Z,101495.59
2023-06-05T21:41:33.879Z,101490.06
2023-06-05T21:47:01.184Z,101490.94
2023-06-05T21:53:22.261Z,101498.13
2023-06-05T21:56:06.056Z,101506.72
2023-06-05T22:07:03.904Z,101496.66
2023-06-05T22:14:19.944Z,101509.06
2023-06-05T22:17:08.972Z,101504.94
2023-06-05T22:19:56.971Z,101499.41
2023-06-05T22:26:36.126Z,101503.94
2023-06-05T22:29:19.675Z,101490.69
2023-06-05T22:32:03.450Z,101493.44
2023-06-05T22:34:55.987Z,101496.41
2023-06-05T22:37:40.158Z,101490.53
2023-06-05T22:40:24.065Z,101500.16
2023-06-05T22:47:18.154Z,101493.41
2023-06-05T22:50:02.082Z,101499.50
2023-06-05T22:52:46.092Z,101501.09
2023-06-05T22:56:13.014Z,101502.91
2023-06-05T23:02:14.625Z,101500.44
2023-06-05T23:05:11.910Z,101499.69
2023-06-05T23:07:58.681Z,101495.16
2023-06-05T23:10:43.221Z,101493.63
2023-06-05T23:13:26.995Z,101492.38
2023-06-05T23:16:11.573Z,101501.34
2023-06-05T23:18:55.214Z,101495.03
2023-06-05T23:21:38.782Z,101494.38
2023-06-05T23:24:22.750Z,101495.09
2023-06-05T23:27:06.742Z,101492.91
2023-06-05T23:29:50.456Z,101493.44
2023-06-05T23:32:34.172Z,101498.38
2023-06-05T23:35:17.850Z,101500.56
2023-06-05T23:38:01.484Z,101499.47
2023-06-05T23:40:45.192Z,101498.75
2023-06-05T23:43:28.833Z,101504.41
2023-06-05T23:46:12.961Z,101498.25
2023-06-05T23:57:20.858Z,101490.78
